Time;durP1;ratioP1;P1;durP2;ratioP2;P2;SDS_P1;SDS_P2;PMS_P1;PMS_P2;Temp;Humidity;BMP_temperature;BMP_pressure;BME280_temperature;BME280_humidity;BME280_pressure;Samples;Min_cycle;Max_cycle;Signal;HPM_P1;HPM_P2
2021/12/05 00:23:15;;;;;;;;;0.00;0.00;;;;;6.42;70.15;99997.69;4920639;28;45440;-55
2021/12/05 00:25:45;;;;;;;;;0.00;0.00;;;;;6.40;70.32;99995.09;4941105;28;47120;-57
2021/12/05 05:40:14;;;;;;;;;0.50;0.00;;;;;5.67;70.52;99833.09;4982693;28;45343;-57
2021/12/05 05:50:13;;;;;;;;;1.00;0.00;;;;;5.71;70.87;99839.13;4962747;28;45911;-56
2021/12/05 05:52:38;;;;;;;;;0.00;0.00;;;;;5.76;70.19;99846.94;4963045;28;45332;-57
2021/12/05 05:55:04;;;;;;;;;0.00;0.00;;;;;5.66;71.02;99846.44;4963048;28;45220;-55
2021/12/05 05:57:42;;;;;;;;;0.75;0.00;;;;;5.66;70.63;99849.09;4962978;28;46056;-57
2021/12/05 06:00:19;;;;;;;;;0.00;0.00;;;;;5.61;71.27;99848.44;4962373;28;46325;-56
2021/12/05 06:05:31;;;;;;;;;0.00;0.00;;;;;5.82;70.71;99839.56;4961039;28;45307;-56
2021/12/05 06:07:57;;;;;;;;;0.00;0.00;;;;;5.83;70.15;99836.00;4962542;28;45282;-55
2021/12/05 06:10:25;;;;;;;;;0.50;0.00;;;;;5.91;70.33;99828.59;4962584;28;46025;-57
2021/12/05 06:12:51;;;;;;;;;0.75;0.00;;;;;5.94;70.25;99827.59;4962571;28;45338;-54
2021/12/05 06:15:19;;;;;;;;;0.75;0.00;;;;;6.00;70.01;99806.94;4962560;28;45365;-57
2021/12/05 06:17:45;;;;;;;;;0.00;0.00;;;;;5.96;69.46;99815.09;4962110;28;45454;-58
2021/12/05 06:20:15;;;;;;;;;0.00;0.00;;;;;6.04;69.31;99813.84;4962480;28;46296;-55
2021/12/05 06:22:40;;;;;;;;;0.00;0.00;;;;;6.01;69.53;99813.97;4962435;28;45346;-58
2021/12/05 06:25:10;;;;;;;;;0.25;0.00;;;;;5.94;69.67;99814.31;4962774;28;45348;-55
2021/12/05 06:27:35;;;;;;;;;0.00;0.00;;;;;5.87;69.83;99823.44;4962393;28;45522;-55
2021/12/05 06:30:10;;;;;;;;;0.50;0.00;;;;;5.80;70.62;99830.78;4962069;28;46353;-57
2021/12/05 06:37:50;;;;;;;;;0.00;0.00;;;;;5.63;70.83;99801.34;4962378;28;45262;-54
2021/12/05 06:40:33;;;;;;;;;1.00;0.00;;;;;5.77;70.73;99825.59;4962160;28;46308;-57
2021/12/05 06:43:16;;;;;;;;;0.00;0.00;;;;;5.73;70.95;99821.31;4962287;28;45330;-57
2021/12/05 06:48:25;;;;;;;;;0.00;0.00;;;;;5.78;70.72;99830.00;4962177;28;45315;-55
2021/12/05 06:50:51;;;;;;;;;0.00;0.00;;;;;5.71;70.80;99824.03;4961887;28;45465;-58
2021/12/05 06:53:16;;;;;;;;;1.00;0.00;;;;;5.68;71.24;99836.63;4961907;28;45367;-58
2021/12/05 06:55:42;;;;;;;;;1.75;0.00;;;;;5.57;70.92;99807.78;4962278;28;45363;-56
2021/12/05 06:58:07;;;;;;;;;0.00;0.00;;;;;5.67;71.23;99833.09;4961976;28;45318;-55
2021/12/05 07:00:33;;;;;;;;;1.00;0.00;;;;;5.66;71.29;99830.50;4961429;28;45331;-56
2021/12/05 07:02:59;;;;;;;;;1.00;0.00;;;;;5.71;71.75;99857.75;4961986;28;45333;-58
2021/12/05 07:05:43;;;;;;;;;0.25;0.00;;;;;5.58;72.37;99845.88;4961749;28;45467;-57
2021/12/05 07:08:11;;;;;;;;;0.00;0.00;;;;;5.65;72.92;99868.63;4961766;28;45527;-56
2021/12/05 07:10:56;;;;;;;;;0.50;0.00;;;;;5.71;73.97;99863.94;4961592;28;46048;-55
2021/12/05 07:15:58;;;;;;;;;0.00;0.00;;;;;5.75;74.99;99861.16;4961382;28;45222;-57
2021/12/05 07:23:47;;;;;;;;;0.00;0.00;;;;;5.75;74.78;99862.03;4961755;28;45271;-57
2021/12/05 07:26:21;;;;;;;;;0.00;0.00;;;;;5.79;73.62;99852.97;4961620;28;45350;-59
2021/12/05 07:42:28;;;;;;;;;3.00;0.00;;;;;5.79;75.04;99857.44;4961135;28;45300;-59
2021/12/05 07:44:56;;;;;;;;;1.50;1.00;;;;;5.77;74.62;99849.53;4960686;28;45255;-57
2021/12/05 07:47:26;;;;;;;;;0.00;0.00;;;;;5.80;74.63;99853.84;4961197;28;45330;-58
2021/12/05 07:49:53;;;;;;;;;0.00;0.00;;;;;5.81;74.64;99844.94;4961007;28;45508;-59
2021/12/05 07:52:23;;;;;;;;;2.00;0.00;;;;;5.76;74.79;99850.47;4961295;28;47406;-59
2021/12/05 07:54:56;;;;;;;;;0.25;0.00;;;;;5.77;74.49;99846.03;4961258;28;45364;-57
2021/12/05 07:57:28;;;;;;;;;0.25;0.00;;;;;5.74;74.29;99856.75;4961359;28;45364;-58
2021/12/05 08:00:10;;;;;;;;;0.00;0.00;;;;;5.71;74.99;99853.28;4960888;28;45330;-55
2021/12/05 08:16:19;;;;;;;;;1.00;1.00;;;;;5.93;75.50;99858.66;4960321;28;45388;-58
2021/12/05 08:18:44;;;;;;;;;2.00;0.25;;;;;5.92;75.04;99854.25;4960775;28;45390;-58
2021/12/05 08:21:11;;;;;;;;;2.00;0.25;;;;;5.98;74.62;99856.66;4960282;28;45319;-58
2021/12/05 08:23:37;;;;;;;;;0.00;0.00;;;;;5.98;75.40;99864.66;4960565;28;46092;-58
2021/12/05 08:31:31;;;;;;;;;0.25;0.00;;;;;6.11;74.29;99859.69;4959658;28;45852;-58
2021/12/05 09:25:36;;;;;;;;;1.00;1.00;;;;;6.47;74.37;99902.50;4957840;28;45307;-55
2021/12/05 09:28:20;;;;;;;;;1.00;1.00;;;;;6.55;74.17;99916.34;4959577;28;45972;-55
2021/12/05 09:38:30;;;;;;;;;3.50;0.25;;;;;6.61;74.48;99910.78;4959081;28;45432;-54
2021/12/05 10:07:14;;;;;;;;;2.00;2.00;;;;;7.08;73.36;99939.81;4962766;28;45243;-56
2021/12/05 10:09:14;;;;;;;;;0.75;0.75;;;;;7.00;73.76;99934.81;4949616;28;45244;-57
2021/12/05 10:33:52;;;;;;;;;1.75;1.50;;;;;7.37;73.04;99925.19;4962273;28;45255;-54
2021/12/05 10:36:22;;;;;;;;;3.00;2.00;;;;;7.49;72.88;99927.25;4962049;28;45175;-56
2021/12/05 10:38:52;;;;;;;;;2.00;2.00;;;;;7.49;72.66;99921.94;4962177;28;45453;-55
2021/12/05 10:44:09;;;;;;;;;5.25;2.00;;;;;7.49;71.62;99917.47;4947519;28;45425;-57
2021/12/05 10:46:39;;;;;;;;;3.00;1.00;;;;;7.48;72.76;99917.56;4961962;28;45211;-55
2021/12/05 10:49:14;;;;;;;;;5.25;2.00;;;;;7.52;71.58;99911.13;4962270;28;45341;-55
2021/12/05 10:51:50;;;;;;;;;2.00;2.00;;;;;7.59;70.97;99899.22;4961959;28;45335;-55
2021/12/05 10:54:20;;;;;;;;;1.00;1.00;;;;;7.62;71.71;99907.09;4961997;28;45374;-53
2021/12/05 10:56:50;;;;;;;;;2.25;2.00;;;;;7.62;71.60;99903.56;4962012;28;45333;-53
2021/12/05 10:59:24;;;;;;;;;1.75;0.00;;;;;7.48;71.24;99909.56;4961909;28;45331;-54
2021/12/05 11:01:55;;;;;;;;;3.00;2.00;;;;;7.45;72.47;99896.34;4961213;28;45455;-53
2021/12/05 11:04:32;;;;;;;;;2.50;2.00;;;;;7.49;72.39;99887.25;4961083;28;46339;-53
2021/12/05 11:07:07;;;;;;;;;2.00;2.00;;;;;7.51;72.08;99894.25;4950696;28;45336;-54
2021/12/05 11:09:41;;;;;;;;;2.25;1.50;;;;;7.55;72.51;99890.53;4961964;28;45447;-56
2021/12/05 11:12:25;;;;;;;;;2.00;2.00;;;;;7.60;72.42;99871.63;4961572;28;45452;-54
2021/12/05 11:14:57;;;;;;;;;0.00;0.00;;;;;7.87;72.09;99886.31;4961299;28;46242;-53
2021/12/05 11:17:24;;;;;;;;;2.00;2.00;;;;;7.95;70.24;99900.13;4961539;28;45302;-54
2021/12/05 11:20:06;;;;;;;;;2.00;2.00;;;;;7.90;71.54;99888.84;4961914;28;45244;-55
2021/12/05 11:22:41;;;;;;;;;2.00;2.00;;;;;7.96;71.41;99888.53;4961553;28;46187;-54
2021/12/05 11:25:10;;;;;;;;;5.50;2.25;;;;;7.96;70.28;99885.00;4961468;28;45493;-56
2021/12/05 11:27:41;;;;;;;;;4.75;3.00;;;;;7.97;71.23;99894.72;4961407;28;45258;-56
2021/12/05 11:30:10;;;;;;;;;2.00;2.00;;;;;7.93;71.03;99898.47;4960877;28;45192;-56
2021/12/05 11:32:51;;;;;;;;;3.75;3.00;;;;;7.85;71.06;99889.97;4941798;28;45246;-55
2021/12/05 11:35:19;;;;;;;;;3.75;2.75;;;;;7.79;71.63;99896.50;4941875;28;46956;-56
2021/12/05 11:38:13;;;;;;;;;1.00;1.00;;;;;7.73;71.51;99885.25;4942166;28;45317;-56
2021/12/05 11:40:52;;;;;;;;;5.50;2.00;;;;;7.71;71.86;99896.00;4940894;28;45224;-56
2021/12/05 11:43:43;;;;;;;;;3.25;1.75;;;;;7.68;72.30;99897.94;4941804;28;45433;-54
2021/12/05 11:46:32;;;;;;;;;2.00;2.00;;;;;7.62;72.65;99896.44;4941449;28;45242;-55
2021/12/05 11:49:06;;;;;;;;;2.00;2.00;;;;;7.49;72.73;99895.25;4941860;28;45321;-57
2021/12/05 11:51:40;;;;;;;;;1.75;1.75;;;;;7.53;72.68;99902.19;4941771;28;45358;-57
2021/12/05 11:54:36;;;;;;;;;4.50;2.50;;;;;7.39;72.84;99910.84;4941393;28;45437;-56
2021/12/05 11:57:03;;;;;;;;;2.00;1.00;;;;;7.32;72.08;99917.38;4939908;28;46535;-55
2021/12/05 11:59:37;;;;;;;;;1.00;1.00;;;;;7.32;71.48;99922.69;4940730;28;45374;-53
2021/12/05 12:02:14;;;;;;;;;2.00;1.00;;;;;7.30;72.93;99937.94;4941565;28;45351;-55
2021/12/05 12:05:07;;;;;;;;;0.50;0.00;;;;;7.27;71.85;99935.38;4940284;28;46568;-57
2021/12/05 12:07:35;;;;;;;;;0.00;0.00;;;;;7.23;72.62;99941.78;4941143;28;46361;-57
2021/12/05 12:10:17;;;;;;;;;2.00;2.00;;;;;7.19;72.22;99940.19;4941130;28;45386;-55
2021/12/05 12:12:46;;;;;;;;;1.00;1.00;;;;;7.22;72.66;99948.06;4941586;28;45419;-54
2021/12/05 12:15:14;;;;;;;;;0.50;0.50;;;;;7.06;71.55;99920.38;4939126;28;46669;-55
2021/12/05 12:17:41;;;;;;;;;0.00;0.00;;;;;7.13;72.25;99944.00;4941358;28;46338;-56
2021/12/05 12:20:11;;;;;;;;;0.00;0.00;;;;;7.03;71.37;99942.69;4941435;28;45442;-58
2021/12/05 12:22:37;;;;;;;;;0.00;0.00;;;;;7.01;71.31;99944.53;4941111;28;45322;-55
2021/12/05 12:25:11;;;;;;;;;0.00;0.00;;;;;7.02;71.59;99953.41;4941319;28;45444;-55
2021/12/05 12:27:40;;;;;;;;;0.00;0.00;;;;;6.95;71.62;99950.16;4941006;28;46399;-56
2021/12/05 12:30:08;;;;;;;;;0.00;0.00;;;;;6.94;71.09;99947.56;4940699;28;45250;-55
2021/12/05 12:32:42;;;;;;;;;0.00;0.00;;;;;6.93;71.66;99949.34;4960382;28;45378;-57
2021/12/05 12:35:15;;;;;;;;;1.00;1.00;;;;;7.03;71.97;99969.34;4960217;28;45402;-56
2021/12/05 12:38:00;;;;;;;;;0.50;0.00;;;;;7.06;70.58;99958.53;4960210;28;46320;-54
2021/12/05 12:40:51;;;;;;;;;0.00;0.00;;;;;7.09;70.98;99962.84;4959979;28;45223;-57
2021/12/05 12:43:38;;;;;;;;;1.00;0.00;;;;;7.04;71.50;99957.75;4959223;28;45255;-55
2021/12/05 12:46:33;;;;;;;;;0.00;0.00;;;;;7.06;71.47;99958.53;4959964;28;45472;-55
2021/12/05 12:49:14;;;;;;;;;1.00;1.00;;;;;7.04;71.31;99960.41;4959848;28;46381;-60
2021/12/05 12:51:59;;;;;;;;;2.00;0.00;;;;;7.04;71.75;99962.22;4959193;28;45299;-52
2021/12/05 12:54:36;;;;;;;;;1.00;1.00;;;;;6.88;71.40;99934.50;4959251;28;45435;-51
2021/12/05 12:57:12;;;;;;;;;0.00;0.00;;;;;7.00;71.07;99972.13;4947472;28;45319;-53
2021/12/05 13:00:04;;;;;;;;;2.00;1.00;;;;;7.01;71.67;99971.19;4959491;28;46058;-56
2021/12/05 13:11:19;;;;;;;;;2.00;1.00;;;;;7.29;70.98;99967.31;4959831;28;45427;-52
2021/12/05 13:13:58;;;;;;;;;2.00;1.00;;;;;7.33;70.99;99964.44;4960126;28;45244;-52
2021/12/05 13:16:29;;;;;;;;;2.00;2.00;;;;;7.39;70.73;99979.31;4959986;28;45339;-52
2021/12/05 13:19:22;;;;;;;;;2.00;2.00;;;;;7.51;71.11;99978.72;4959838;28;45484;-53
2021/12/05 13:21:50;;;;;;;;;1.50;1.00;;;;;7.59;71.05;99976.59;4955050;28;46890;-54
2021/12/05 13:24:17;;;;;;;;;5.75;3.00;;;;;7.55;70.51;99953.66;4960450;28;45241;-53
2021/12/05 13:26:43;;;;;;;;;2.25;2.00;;;;;7.71;70.74;99968.03;4962765;28;45483;-51
2021/12/05 13:29:24;;;;;;;;;3.00;1.00;;;;;7.76;70.44;99979.34;4962482;28;45366;-52
2021/12/05 13:31:53;;;;;;;;;3.00;2.00;;;;;7.81;70.39;99977.34;4962169;28;46379;-51
2021/12/05 13:34:19;;;;;;;;;2.75;2.75;;;;;7.95;69.66;99979.34;4961793;28;45361;-54
2021/12/05 13:36:51;;;;;;;;;3.00;2.00;;;;;7.99;70.10;99987.13;4961838;28;45689;-52
2021/12/05 13:39:29;;;;;;;;;2.00;2.00;;;;;8.05;69.87;99991.31;4962920;28;45346;-49
2021/12/05 13:42:06;;;;;;;;;2.75;2.00;;;;;8.13;69.23;99989.16;4962444;28;46146;-55
2021/12/05 13:44:59;;;;;;;;;6.75;3.25;;;;;8.14;69.55;99987.34;4962668;28;45400;-53
2021/12/05 13:47:51;;;;;;;;;2.00;2.00;;;;;8.25;69.36;99995.72;4963156;28;45465;-52
2021/12/05 13:50:16;;;;;;;;;3.00;3.00;;;;;8.27;69.41;99991.13;4956927;28;45600;-52
2021/12/05 13:52:45;;;;;;;;;3.75;2.50;;;;;8.33;69.10;99988.22;4962897;28;46822;-50
2021/12/05 13:55:39;;;;;;;;;2.00;2.00;;;;;8.33;69.30;99998.91;4962792;28;45359;-50
2021/12/05 13:58:18;;;;;;;;;1.75;1.75;;;;;8.39;68.46;99998.59;4962212;28;45319;-48
2021/12/05 14:00:51;;;;;;;;;2.00;2.00;;;;;8.30;68.76;99996.34;4962252;28;45373;-49
2021/12/05 14:03:39;;;;;;;;;2.00;2.00;;;;;8.34;69.29;100004.16;4961943;28;45365;-49
2021/12/05 14:06:29;;;;;;;;;2.00;2.00;;;;;8.44;69.16;100006.38;4957075;28;45232;-51
2021/12/05 14:09:00;;;;;;;;;2.50;2.00;;;;;8.37;69.14;100008.50;4962724;28;45342;-52
2021/12/05 14:11:26;;;;;;;;;2.00;2.00;;;;;8.31;69.08;100003.44;4962542;28;45824;-48
2021/12/05 14:13:51;;;;;;;;;2.25;1.50;;;;;8.27;68.32;100004.50;4962790;28;45318;-51
2021/12/05 14:16:18;;;;;;;;;2.75;1.25;;;;;8.24;69.44;100018.00;4962274;28;45373;-52
2021/12/05 14:18:44;;;;;;;;;2.50;2.50;;;;;8.27;69.21;100013.38;4962735;28;45254;-52
2021/12/05 14:21:15;;;;;;;;;1.00;1.00;;;;;8.24;69.03;100026.88;4961937;28;46952;-50
2021/12/05 14:23:47;;;;;;;;;3.75;1.75;;;;;8.29;69.37;100029.31;4962359;28;46445;-52
2021/12/05 14:26:18;;;;;;;;;2.00;2.00;;;;;8.22;69.11;100019.88;4962806;28;45289;-55
2021/12/05 14:28:58;;;;;;;;;1.50;1.50;;;;;8.12;69.74;100030.13;4962417;28;45330;-52
2021/12/05 14:31:29;;;;;;;;;3.25;2.25;;;;;8.12;69.99;100031.94;4961880;28;45738;-51
2021/12/05 14:33:55;;;;;;;;;3.00;2.00;;;;;8.11;69.99;100044.41;4961829;28;46654;-51
2021/12/05 14:36:43;;;;;;;;;5.75;2.00;;;;;8.08;69.94;100041.03;4961915;28;45429;-52
2021/12/05 14:39:08;;;;;;;;;2.00;2.00;;;;;8.06;70.14;100043.78;4960427;28;45609;-49
2021/12/05 14:41:34;;;;;;;;;1.75;1.75;;;;;8.05;70.36;100047.38;4960643;28;45314;-50
2021/12/05 14:44:00;;;;;;;;;3.00;2.00;;;;;8.01;70.19;100039.56;4960314;28;47066;-51
2021/12/05 14:46:26;;;;;;;;;1.00;1.00;;;;;8.08;70.27;100051.72;4960399;28;45394;-49
2021/12/05 14:49:02;;;;;;;;;8.00;1.50;;;;;8.03;70.85;100053.72;4961182;28;45359;-51
2021/12/05 14:51:40;;;;;;;;;4.50;3.00;;;;;7.98;70.83;100061.94;4961954;28;45472;-51
2021/12/05 14:54:07;;;;;;;;;3.75;2.00;;;;;8.01;70.65;100067.13;4961462;28;46465;-50
2021/12/05 14:56:35;;;;;;;;;3.75;2.50;;;;;8.03;71.07;100064.38;4961861;28;45526;-48
2021/12/05 14:59:13;;;;;;;;;5.25;2.00;;;;;8.08;70.56;100073.06;4961839;28;45315;-47
2021/12/05 15:01:43;;;;;;;;;2.50;2.50;;;;;7.98;70.77;100059.28;4961505;28;45393;-51
2021/12/05 15:04:10;;;;;;;;;1.50;1.00;;;;;8.07;70.67;100088.22;4961232;28;45248;-50
2021/12/05 15:06:45;;;;;;;;;2.00;2.00;;;;;8.08;71.20;100081.09;4961698;28;45319;-58
2021/12/05 15:09:30;;;;;;;;;0.50;0.50;;;;;8.17;71.45;100092.16;4961858;28;45249;-55
2021/12/05 15:12:06;;;;;;;;;4.50;4.50;;;;;8.22;71.16;100082.16;4961297;28;45251;-57
2021/12/05 15:14:33;;;;;;;;;5.00;3.00;;;;;8.30;70.84;100093.34;4961053;28;46347;-56
2021/12/05 15:17:15;;;;;;;;;5.00;5.00;;;;;8.35;70.89;100096.69;4961268;28;45346;-57
2021/12/05 15:19:45;;;;;;;;;6.00;4.00;;;;;8.34;70.20;100107.44;4961338;28;45283;-56
2021/12/05 15:22:12;;;;;;;;;2.00;2.00;;;;;8.32;70.58;100096.84;4961184;28;45334;-59
2021/12/05 15:24:39;;;;;;;;;2.50;2.50;;;;;8.47;70.77;100113.97;4961308;28;47078;-53
2021/12/05 15:27:12;;;;;;;;;5.25;2.50;;;;;8.46;70.68;100101.53;4961201;28;45330;-57
2021/12/05 15:29:38;;;;;;;;;2.50;2.50;;;;;8.48;69.45;100112.16;4961303;28;45283;-57
2021/12/05 15:32:04;;;;;;;;;2.75;2.00;;;;;8.47;70.14;100127.31;4960899;28;45228;-53
2021/12/05 15:34:35;;;;;;;;;3.25;2.25;;;;;8.45;69.93;100126.50;4961433;28;46286;-55
2021/12/05 15:37:09;;;;;;;;;3.00;2.00;;;;;8.41;70.19;100132.94;4961087;28;45453;-56
2021/12/05 15:39:36;;;;;;;;;2.00;2.00;;;;;8.38;69.79;100137.56;4961335;28;45464;-51
2021/12/05 15:42:14;;;;;;;;;3.00;2.00;;;;;8.33;70.11;100153.81;4960921;28;45316;-51
2021/12/05 15:44:39;;;;;;;;;1.00;1.00;;;;;8.30;70.76;100157.44;4960749;28;46392;-50
2021/12/05 15:47:23;;;;;;;;;6.75;3.00;;;;;8.29;71.44;100169.06;4960746;28;45276;-51
2021/12/05 15:49:57;;;;;;;;;1.75;1.50;;;;;8.28;71.26;100164.66;4960084;28;45309;-51
2021/12/05 15:52:33;;;;;;;;;3.00;2.00;;;;;8.30;72.26;100181.47;4960974;28;46144;-52
2021/12/05 15:55:00;;;;;;;;;5.50;3.00;;;;;8.27;70.63;100172.72;4960829;28;46217;-54
2021/12/05 15:57:35;;;;;;;;;4.00;3.00;;;;;8.16;71.19;100183.03;4960847;28;45374;-49
2021/12/05 16:00:11;;;;;;;;;4.50;3.50;;;;;8.09;71.88;100178.88;4960469;28;45326;-51
2021/12/05 16:02:39;;;;;;;;;5.50;5.00;;;;;8.05;71.53;100186.19;4960605;28;45406;-51
2021/12/05 16:05:14;;;;;;;;;6.75;3.00;;;;;8.04;71.77;100197.81;4960096;28;46984;-50
2021/12/05 16:07:40;;;;;;;;;5.50;3.00;;;;;8.06;71.99;100197.72;4960357;28;45326;-51
2021/12/05 16:10:33;;;;;;;;;6.75;3.00;;;;;8.06;71.75;100211.09;4960879;28;45247;-49
2021/12/05 16:12:58;;;;;;;;;5.00;3.00;;;;;8.04;72.01;100216.47;4960515;28;45377;-52
2021/12/05 16:15:27;;;;;;;;;2.75;2.75;;;;;8.00;71.88;100209.53;4960366;28;45624;-52
2021/12/05 16:17:57;;;;;;;;;3.50;3.00;;;;;8.05;71.47;100220.03;4960704;28;45408;-53
2021/12/05 16:20:35;;;;;;;;;5.00;5.00;;;;;7.96;71.66;100223.97;4960811;28;45477;-50
2021/12/05 16:23:25;;;;;;;;;6.50;4.25;;;;;7.97;72.14;100233.72;4959202;28;45439;-51
2021/12/05 16:26:04;;;;;;;;;5.00;5.00;;;;;7.93;71.80;100235.63;4960522;28;46047;-51
2021/12/05 16:28:40;;;;;;;;;4.00;4.00;;;;;7.94;72.53;100241.84;4960618;28;45263;-52
2021/12/05 16:31:19;;;;;;;;;5.75;3.00;;;;;7.98;72.41;100243.44;4960195;28;45406;-51
2021/12/05 16:33:54;;;;;;;;;7.00;6.00;;;;;8.05;72.12;100250.25;4960407;28;45465;-60
2021/12/05 16:36:29;;;;;;;;;8.00;6.25;;;;;8.08;72.64;100258.13;4960481;28;45512;-50
2021/12/05 16:38:55;;;;;;;;;5.50;4.00;;;;;8.14;71.77;100270.34;4960244;28;46315;-51
2021/12/05 16:41:29;;;;;;;;;6.50;4.50;;;;;8.12;71.99;100254.38;4960370;28;45536;-49
2021/12/05 16:44:03;;;;;;;;;3.00;3.00;;;;;8.13;71.59;100255.25;4959858;28;45247;-50
2021/12/05 16:46:41;;;;;;;;;7.50;4.00;;;;;8.15;71.49;100258.75;4960200;28;46231;-48
2021/12/05 16:49:10;;;;;;;;;5.50;5.50;;;;;8.17;71.73;100272.88;4960215;28;45267;-51
2021/12/05 16:51:56;;;;;;;;;3.25;3.25;;;;;8.16;71.27;100279.16;4960313;28;45382;-50
2021/12/05 16:54:24;;;;;;;;;5.25;5.00;;;;;8.16;71.78;100281.84;4960038;28;45584;-49
2021/12/05 16:57:20;;;;;;;;;9.25;4.75;;;;;8.17;72.25;100275.53;4959922;28;46147;-49
2021/12/05 16:59:47;;;;;;;;;5.50;3.50;;;;;8.19;71.32;100281.69;4957972;28;45361;-50
2021/12/05 17:02:15;;;;;;;;;3.00;2.50;;;;;8.15;71.97;100282.78;4966171;28;45302;-51
2021/12/05 17:04:43;;;;;;;;;4.25;4.25;;;;;8.14;71.38;100287.25;4965934;28;45910;-47
2021/12/05 17:07:13;;;;;;;;;5.00;3.75;;;;;8.02;71.52;100266.41;4966344;28;47169;-46
2021/12/05 17:09:39;;;;;;;;;5.50;3.00;;;;;8.21;72.02;100290.50;4966055;28;45382;-49
2021/12/05 17:12:04;;;;;;;;;6.00;3.00;;;;;8.25;71.23;100297.47;4962865;28;45472;-45
2021/12/05 17:14:30;;;;;;;;;8.25;3.00;;;;;8.21;71.04;100298.50;4963119;28;45526;-47
2021/12/05 17:16:56;;;;;;;;;8.00;6.00;;;;;8.18;71.02;100301.31;4963543;28;45330;-48
2021/12/05 17:19:27;;;;;;;;;4.50;4.50;;;;;8.18;70.96;100310.19;4964120;28;45459;-46
2021/12/05 17:21:52;;;;;;;;;6.50;6.00;;;;;8.12;71.13;100307.78;4964389;28;45418;-46
2021/12/05 17:24:32;;;;;;;;;4.00;4.00;;;;;8.15;71.01;100312.13;4963920;28;45371;-46
2021/12/05 17:27:03;;;;;;;;;7.00;7.00;;;;;8.13;70.99;100312.19;4964295;28;46623;-48
2021/12/05 17:29:36;;;;;;;;;9.50;6.75;;;;;8.10;70.60;100312.31;4963860;28;45674;-45
2021/12/05 17:32:09;;;;;;;;;9.75;6.50;;;;;8.07;71.08;100311.59;4964054;28;45331;-49
2021/12/05 17:34:41;;;;;;;;;7.00;3.00;;;;;8.02;71.20;100310.91;4962710;28;45382;-48
2021/12/05 17:37:19;;;;;;;;;6.50;6.00;;;;;8.03;70.58;100302.84;4963268;28;45710;-48
2021/12/05 17:39:46;;;;;;;;;7.00;6.00;;;;;7.95;71.01;100304.97;4961601;28;45227;-46
2021/12/05 17:42:19;;;;;;;;;6.00;3.50;;;;;7.92;71.18;100316.63;4962184;28;45462;-49
2021/12/05 17:44:47;;;;;;;;;8.50;5.75;;;;;7.94;71.08;100330.78;4962299;28;45161;-48
2021/12/05 17:47:15;;;;;;;;;6.00;6.00;;;;;7.97;70.77;100340.47;4962653;28;47159;-49
2021/12/05 17:49:42;;;;;;;;;6.25;5.50;;;;;7.98;70.90;100337.75;4963426;28;45449;-50
2021/12/05 17:52:10;;;;;;;;;6.00;6.00;;;;;7.93;71.04;100333.50;4962448;28;45425;-45
2021/12/05 17:54:49;;;;;;;;;10.75;8.00;;;;;7.86;71.30;100321.34;4962598;28;45382;-48
2021/12/05 17:57:19;;;;;;;;;12.75;6.50;;;;;7.88;71.87;100338.19;4960093;28;46652;-48
2021/12/05 18:05:07;;;;;;;;;12.00;9.25;;;;;7.81;72.32;100352.72;4961703;28;45202;-48
2021/12/05 18:07:33;;;;;;;;;21.25;15.00;;;;;7.79;72.54;100354.56;4962864;28;48379;-47
2021/12/05 18:09:59;;;;;;;;;14.50;12.50;;;;;7.78;72.47;100352.84;4962423;28;45446;-50
2021/12/05 18:12:33;;;;;;;;;13.75;12.00;;;;;7.79;72.81;100355.44;4959584;28;45587;-47
2021/12/05 18:15:02;;;;;;;;;12.00;11.25;;;;;7.80;72.66;100353.66;4959045;28;46417;-51
2021/12/05 18:17:27;;;;;;;;;12.25;8.25;;;;;7.81;73.28;100364.25;4960578;28;45745;-49
2021/12/05 18:19:53;;;;;;;;;15.75;11.25;;;;;7.84;72.94;100364.13;4959565;28;45466;-48
2021/12/05 18:22:18;;;;;;;;;13.50;13.25;;;;;7.86;72.69;100358.72;4960181;28;45460;-47
2021/12/05 18:24:44;;;;;;;;;12.00;10.00;;;;;7.90;72.66;100358.56;4959729;28;45337;-47
2021/12/05 18:27:11;;;;;;;;;9.75;9.75;;;;;7.88;72.51;100365.75;4960568;28;47031;-47
2021/12/05 18:29:36;;;;;;;;;20.25;11.25;;;;;7.93;73.02;100373.56;4961390;28;45374;-46
2021/12/05 18:32:02;;;;;;;;;16.75;11.00;;;;;7.91;73.26;100376.28;4961722;28;45309;-47
2021/12/05 18:34:30;;;;;;;;;14.25;8.00;;;;;7.85;72.80;100379.19;4962117;28;45914;-48
2021/12/05 18:36:58;;;;;;;;;14.25;11.50;;;;;7.91;72.91;100389.63;4961700;28;46253;-51
2021/12/05 18:39:28;;;;;;;;;16.25;15.50;;;;;7.87;73.06;100382.69;4962199;28;45354;-52
2021/12/05 18:42:02;;;;;;;;;18.50;13.00;;;;;7.87;73.20;100382.69;4962149;28;45366;-47
2021/12/05 18:44:30;;;;;;;;;14.00;11.00;;;;;7.95;73.22;100393.03;4961727;28;46143;-49
2021/12/05 18:46:57;;;;;;;;;19.75;15.25;;;;;7.83;73.83;100369.50;4961668;28;45341;-48
2021/12/05 18:49:24;;;;;;;;;22.50;18.00;;;;;7.95;73.68;100398.38;4961949;28;45366;-48
2021/12/05 18:51:50;;;;;;;;;18.75;15.50;;;;;7.95;73.41;100396.59;4962110;28;45283;-49
2021/12/05 18:54:16;;;;;;;;;26.00;20.75;;;;;7.94;73.79;100399.31;4960413;28;46266;-50
2021/12/05 18:56:41;;;;;;;;;22.25;18.25;;;;;7.91;73.56;100407.47;4961847;28;45172;-46
2021/12/05 18:59:07;;;;;;;;;15.00;14.25;;;;;7.87;74.13;100413.84;4961665;28;45250;-47
2021/12/05 19:04:23;;;;;;;;;15.75;15.75;;;;;7.83;74.29;100404.19;4958683;28;45513;-52
2021/12/05 19:06:53;;;;;;;;;16.50;15.25;;;;;7.73;74.67;100397.53;4957690;28;46080;-48
2021/12/05 19:11:55;;;;;;;;;15.00;13.50;;;;;7.75;74.91;100407.19;4955974;28;45512;-50
2021/12/05 19:14:30;;;;;;;;;15.75;13.25;;;;;7.75;74.71;100408.97;4953494;28;45912;-50
2021/12/05 19:17:06;;;;;;;;;14.25;12.00;;;;;7.70;74.69;100403.84;4952819;28;45483;-50
2021/12/05 19:19:33;;;;;;;;;14.75;7.75;;;;;7.75;74.61;100419.66;4961000;28;45382;-48
2021/12/05 19:21:59;;;;;;;;;14.50;11.50;;;;;7.74;75.01;100417.94;4961281;28;45263;-48
2021/12/05 19:24:28;;;;;;;;;17.00;12.00;;;;;7.72;74.37;100415.31;4961267;28;45311;-47
2021/12/05 19:26:55;;;;;;;;;12.00;11.00;;;;;7.79;74.90;100423.94;4960921;28;45513;-49
2021/12/05 19:29:22;;;;;;;;;11.75;7.00;;;;;7.79;74.48;100426.63;4960670;28;45405;-48
2021/12/05 19:31:50;;;;;;;;;11.25;5.75;;;;;7.73;74.90;100421.53;4959041;28;45401;-47
2021/12/05 19:34:17;;;;;;;;;14.75;12.25;;;;;7.73;74.25;100426.88;4960952;28;45272;-46
2021/12/05 19:36:42;;;;;;;;;14.75;12.25;;;;;7.75;74.97;100435.66;4960628;28;46438;-49
2021/12/05 19:39:09;;;;;;;;;10.00;9.00;;;;;7.73;74.90;100438.41;4960964;28;45302;-46
2021/12/05 19:41:36;;;;;;;;;12.00;9.75;;;;;7.75;74.56;100439.19;4960862;28;45283;-49
2021/12/05 19:44:03;;;;;;;;;11.00;9.25;;;;;7.76;74.50;100451.63;4960631;28;45354;-49
2021/12/05 19:46:31;;;;;;;;;16.25;11.75;;;;;7.73;74.44;100443.75;4960239;28;45295;-50
2021/12/05 19:48:57;;;;;;;;;7.25;7.25;;;;;7.77;74.23;100452.50;4961058;28;45355;-50
2021/12/05 19:51:25;;;;;;;;;11.25;10.50;;;;;7.77;74.60;100450.69;4960886;28;45411;-48
2021/12/05 19:53:52;;;;;;;;;7.50;7.25;;;;;7.78;74.81;100456.91;4959453;28;45413;-48
2021/12/05 19:56:19;;;;;;;;;12.00;7.25;;;;;7.73;74.51;100450.88;4960695;28;45390;-50
2021/12/05 19:58:44;;;;;;;;;12.00;12.00;;;;;7.71;74.46;100442.06;4960646;28;45299;-50
2021/12/05 20:01:10;;;;;;;;;8.25;7.75;;;;;7.71;75.06;100447.41;4959911;28;45354;-48
2021/12/05 20:03:38;;;;;;;;;11.75;8.75;;;;;7.73;74.40;100459.75;4959811;28;46169;-48
2021/12/05 20:06:05;;;;;;;;;12.50;8.75;;;;;7.70;74.36;100440.31;4960571;28;46409;-51
2021/12/05 20:08:32;;;;;;;;;7.75;7.00;;;;;7.72;74.31;100452.69;4960483;28;45449;-50
2021/12/05 20:10:59;;;;;;;;;15.25;9.25;;;;;7.72;74.76;100466.03;4959822;28;45407;-47
2021/12/05 20:13:25;;;;;;;;;9.75;8.00;;;;;7.73;74.47;100481.09;4960414;28;46065;-51
2021/12/05 20:15:51;;;;;;;;;11.25;7.75;;;;;7.75;74.62;100470.34;4959996;28;46952;-51
2021/12/05 20:18:17;;;;;;;;;8.75;8.75;;;;;7.63;74.82;100458.38;4960630;28;45351;-48
2021/12/05 20:20:45;;;;;;;;;6.50;6.50;;;;;7.63;74.72;100457.50;4960835;28;45320;-53
2021/12/05 20:23:15;;;;;;;;;13.00;11.25;;;;;7.70;74.93;100470.53;4960431;28;45819;-50
2021/12/05 20:25:41;;;;;;;;;8.75;8.75;;;;;7.68;74.48;100471.53;4960570;28;47537;-47
2021/12/05 20:28:07;;;;;;;;;9.00;8.00;;;;;7.62;74.86;100472.63;4960466;28;45317;-49
2021/12/05 20:30:34;;;;;;;;;11.00;11.00;;;;;7.59;75.00;100488.75;4960279;28;45279;-48
2021/12/05 20:33:03;;;;;;;;;12.00;9.00;;;;;7.63;74.84;100479.72;4960159;28;45362;-48
2021/12/05 20:35:29;;;;;;;;;9.00;8.25;;;;;7.65;74.35;100485.00;4959754;28;46189;-47
2021/12/05 20:37:59;;;;;;;;;10.50;7.50;;;;;7.60;74.53;100480.69;4960264;28;45250;-50